createdAt,value
2022-08-25T00:01:54.929Z,20.42
2022-08-25T00:04:24.079Z,20.62
2022-08-25T00:06:53.239Z,20.73
2022-08-25T00:09:23.354Z,19.73
2022-08-25T00:11:52.088Z,20.30
2022-08-25T00:58:36.159Z,20.20
2022-08-25T01:01:04.552Z,20.44
2022-08-25T01:03:34.068Z,20.35
2022-08-25T01:06:05.157Z,19.86
2022-08-25T01:08:33.248Z,19.98
2022-08-25T01:11:04.245Z,19.85
2022-08-25T01:13:40.346Z,20.32
2022-08-25T01:16:08.855Z,20.37
2022-08-25T01:18:56.640Z,20.43
2022-08-25T01:21:27.544Z,20.41
2022-08-25T01:23:58.416Z,20.23
2022-08-25T01:26:30.129Z,20.48
2022-08-25T01:29:37.484Z,20.42
2022-08-25T01:32:09.183Z,19.76
2022-08-25T01:34:40.782Z,20.21
2022-08-25T01:37:13.407Z,20.22
2022-08-25T01:39:42.138Z,20.33
2022-08-25T01:42:13.406Z,20.15
2022-08-25T01:44:44.325Z,20.29
2022-08-25T01:47:13.084Z,20.32
2022-08-25T01:49:41.377Z,20.40
2022-08-25T01:52:16.529Z,19.86
2022-08-25T01:54:44.845Z,20.23
2022-08-25T01:57:12.785Z,20.29
2022-08-25T01:59:41.425Z,20.00
2022-08-25T02:02:09.815Z,20.13
2022-08-25T02:04:40.682Z,20.29
2022-08-25T02:07:12.354Z,20.02
2022-08-25T02:09:40.654Z,19.88
2022-08-25T02:12:09.714Z,19.93
2022-08-25T02:14:38.044Z,20.29
2022-08-25T02:17:07.082Z,20.22
2022-08-25T02:19:35.077Z,20.34
2022-08-25T02:22:03.083Z,20.28
2022-08-25T02:24:31.343Z,20.42
2022-08-25T02:26:59.665Z,20.24
2022-08-25T02:29:27.774Z,20.29
2022-08-25T02:31:55.983Z,20.24
2022-08-25T02:34:24.033Z,20.02
2022-08-25T02:36:51.794Z,20.04
2022-08-25T02:39:20.025Z,19.63
2022-08-25T02:41:47.875Z,19.43
2022-08-25T02:44:15.652Z,19.59
2022-08-25T02:46:44.159Z,19.79
2022-08-25T02:49:11.864Z,20.09
2022-08-25T02:51:39.673Z,20.10
2022-08-25T02:54:07.941Z,19.96
2022-08-25T02:56:35.780Z,19.29
2022-08-25T02:59:03.739Z,19.88
2022-08-25T03:01:32.955Z,20.01
2022-08-25T03:04:02.544Z,19.74
2022-08-25T03:06:30.606Z,20.13
2022-08-25T03:08:59.001Z,19.86
2022-08-25T03:11:26.810Z,19.70
2022-08-25T03:13:56.649Z,20.06
2022-08-25T03:16:27.810Z,19.61
2022-08-25T03:18:56.093Z,19.76
2022-08-25T03:21:24.941Z,19.80
2022-08-25T03:23:52.974Z,20.11
2022-08-25T03:26:39.352Z,20.08
2022-08-25T03:29:07.402Z,20.08
2022-08-25T03:31:35.561Z,20.10
2022-08-25T03:34:03.791Z,19.97
2022-08-25T03:36:31.974Z,20.08
2022-08-25T03:39:00.441Z,20.07
2022-08-25T03:41:30.350Z,19.76
2022-08-25T03:43:59.971Z,19.09
2022-08-25T03:46:30.194Z,19.23
2022-08-25T03:49:00.212Z,19.35
2022-08-25T03:51:40.643Z,19.27
2022-08-25T03:54:10.727Z,18.77
2022-08-25T03:56:38.592Z,19.57
2022-08-25T03:59:09.361Z,19.77
2022-08-25T04:01:42.191Z,20.03
2022-08-25T04:04:13.092Z,19.95
2022-08-25T04:06:41.882Z,20.09
2022-08-25T04:09:10.941Z,20.11
2022-08-25T04:11:39.132Z,19.70
2022-08-25T04:14:07.114Z,20.05
2022-08-25T04:16:36.242Z,19.25
2022-08-25T04:19:07.603Z,19.97
2022-08-25T04:21:36.801Z,20.11
2022-08-25T04:24:06.301Z,19.94
2022-08-25T04:26:37.401Z,20.18
2022-08-25T04:29:07.217Z,20.02
2022-08-25T04:31:35.175Z,19.99
2022-08-25T04:34:04.343Z,20.19
2022-08-25T04:36:43.023Z,19.87
2022-08-25T04:39:10.960Z,20.17
2022-08-25T04:41:39.793Z,20.26
2022-08-25T04:44:08.138Z,20.58
2022-08-25T04:46:36.151Z,20.59
2022-08-25T04:49:04.183Z,20.69
2022-08-25T04:51:36.434Z,20.86
2022-08-25T04:54:06.540Z,21.01
2022-08-25T04:56:35.241Z,20.84
2022-08-25T04:59:10.050Z,20.84
2022-08-25T05:01:39.204Z,21.15
2022-08-25T05:04:08.803Z,21.42
2022-08-25T05:06:43.771Z,21.41
2022-08-25T05:09:12.931Z,21.65
2022-08-25T05:11:48.244Z,21.81
2022-08-25T05:14:18.572Z,22.24
2022-08-25T05:16:46.441Z,22.15
2022-08-25T05:19:14.922Z,22.64
2022-08-25T05:21:42.848Z,22.59
2022-08-25T05:24:10.768Z,22.84
2022-08-25T05:26:39.075Z,22.93
2022-08-25T05:29:07.550Z,23.31
2022-08-25T05:31:41.705Z,22.89
2022-08-25T05:34:12.455Z,23.14
2022-08-25T05:36:43.593Z,23.48
2022-08-25T05:39:11.891Z,23.83
2022-08-25T05:41:39.655Z,24.04
2022-08-25T05:44:07.920Z,23.57
2022-08-25T05:46:36.061Z,23.90
2022-08-25T05:49:03.892Z,23.91
2022-08-25T05:51:31.708Z,23.98
2022-08-25T05:54:00.014Z,23.98
2022-08-25T05:56:27.842Z,24.27
2022-08-25T05:58:55.717Z,24.90
2022-08-25T06:01:45.595Z,24.84
2022-08-25T06:04:15.768Z,24.58
2022-08-25T06:06:43.844Z,25.68
2022-08-25T06:09:11.763Z,25.57
2022-08-25T06:11:40.854Z,26.00
2022-08-25T06:14:10.113Z,26.20
2022-08-25T06:16:39.204Z,26.72
2022-08-25T06:19:09.139Z,26.42
2022-08-25T06:21:39.310Z,26.29
2022-08-25T06:24:14.831Z,26.55
2022-08-25T06:26:44.393Z,27.07
2022-08-25T06:29:14.307Z,27.51
2022-08-25T06:31:43.123Z,27.30
2022-08-25T06:34:12.006Z,27.19
2022-08-25T06:36:40.754Z,28.28
2022-08-25T06:39:10.607Z,27.76
2022-08-25T06:41:39.305Z,27.64
2022-08-25T06:44:07.502Z,28.13
2022-08-25T06:46:36.578Z,27.71
2022-08-25T06:49:06.302Z,28.61
2022-08-25T06:51:37.683Z,27.91
2022-08-25T06:54:10.403Z,27.92
2022-08-25T06:56:41.202Z,28.88
2022-08-25T06:59:10.043Z,28.35
2022-08-25T07:01:38.487Z,29.25
2022-08-25T07:04:11.804Z,29.85
2022-08-25T07:06:41.988Z,29.93
2022-08-25T07:09:11.477Z,29.61
2022-08-25T07:11:42.680Z,28.97
2022-08-25T07:14:13.044Z,28.55
2022-08-25T07:16:42.461Z,28.50
2022-08-25T07:19:14.733Z,28.46
2022-08-25T07:21:45.683Z,28.60
2022-08-25T07:24:14.426Z,29.22
2022-08-25T07:26:43.872Z,29.49
2022-08-25T07:29:16.123Z,28.92
2022-08-25T07:31:46.295Z,30.65
2022-08-25T07:34:33.183Z,29.94
2022-08-25T07:37:06.152Z,29.96
2022-08-25T07:39:34.683Z,30.01
2022-08-25T07:42:03.141Z,30.76
2022-08-25T07:44:31.333Z,31.17
2022-08-25T07:46:59.228Z,31.28
2022-08-25T07:52:16.396Z,30.70
2022-08-25T07:54:45.509Z,32.01
2022-08-25T07:57:15.114Z,32.02
2022-08-25T07:59:43.132Z,30.76
2022-08-25T08:02:18.693Z,30.75
2022-08-25T08:04:50.102Z,32.50
2022-08-25T08:07:24.092Z,32.64
2022-08-25T08:10:42.299Z,30.75
2022-08-25T08:13:00.725Z,31.87
2022-08-25T08:15:29.774Z,33.16
2022-08-25T08:17:59.330Z,32.23
2022-08-25T08:20:29.111Z,32.05
2022-08-25T08:22:58.349Z,33.43
2022-08-25T08:25:27.765Z,33.27
2022-08-25T08:27:56.569Z,32.73
2022-08-25T08:30:26.214Z,33.50
2022-08-25T08:33:11.811Z,33.56
2022-08-25T08:35:41.601Z,32.58
2022-08-25T08:38:16.141Z,32.31
2022-08-25T08:41:26.590Z,31.96
2022-08-25T08:44:16.414Z,33.18
2022-08-25T08:46:50.143Z,33.17
2022-08-25T08:49:49.593Z,33.26
2022-08-25T08:52:20.707Z,32.52
2022-08-25T08:54:52.061Z,31.41
2022-08-25T08:57:25.781Z,32.21
2022-08-25T09:00:00.740Z,31.25
2022-08-25T09:02:49.964Z,30.70
2022-08-25T09:05:21.883Z,31.77
2022-08-25T09:08:20.487Z,30.37
2022-08-25T09:11:23.259Z,31.21
2022-08-25T09:14:04.981Z,29.89
2022-08-25T09:16:55.188Z,30.30
2022-08-25T09:20:05.356Z,30.38
2022-08-25T09:22:53.761Z,31.21
2022-08-25T09:25:53.448Z,31.87
2022-08-25T09:28:40.172Z,32.13
2022-08-25T09:31:17.525Z,33.28
2022-08-25T09:33:45.883Z,33.76
2022-08-25T09:36:15.308Z,33.81
2022-08-25T09:38:44.714Z,34.06
2022-08-25T09:41:17.130Z,31.73
2022-08-25T09:43:54.034Z,33.44
2022-08-25T09:46:28.492Z,33.67
2022-08-25T09:49:11.466Z,34.26
2022-08-25T09:51:43.371Z,34.21
2022-08-25T09:54:18.204Z,32.79
2022-08-25T09:56:57.341Z,34.26
2022-08-25T09:59:34.528Z,35.06
2022-08-25T10:02:25.962Z,34.34
2022-08-25T10:04:55.743Z,33.88
2022-08-25T10:07:34.406Z,33.49
2022-08-25T10:10:08.491Z,34.00
2022-08-25T10:12:43.259Z,33.89
2022-08-25T10:15:29.558Z,34.17
2022-08-25T10:18:26.263Z,35.49
2022-08-25T10:21:08.956Z,33.76
2022-08-25T10:23:43.631Z,34.37
2022-08-25T10:26:19.832Z,34.06
2022-08-25T10:28:54.293Z,33.44
2022-08-25T10:31:36.541Z,33.84
2022-08-25T10:34:31.309Z,34.07
2022-08-25T10:37:21.528Z,33.23
2022-08-25T10:40:03.822Z,34.28
2022-08-25T10:43:11.071Z,33.20
2022-08-25T10:45:52.678Z,34.30
2022-08-25T10:48:26.113Z,34.94
2022-08-25T10:51:07.400Z,35.33
2022-08-25T10:53:50.775Z,36.11
2022-08-25T10:56:22.093Z,35.99
2022-08-25T10:59:31.840Z,36.12
2022-08-25T11:02:13.021Z,35.68
2022-08-25T11:04:50.151Z,35.26
2022-08-25T11:07:23.600Z,35.72
2022-08-25T11:09:55.014Z,35.79
2022-08-25T11:12:30.911Z,35.14
2022-08-25T11:15:15.541Z,36.14
2022-08-25T11:17:59.330Z,35.94
2022-08-25T11:21:02.881Z,35.87
2022-08-25T11:23:42.311Z,35.35
2022-08-25T11:26:26.153Z,35.48
2022-08-25T11:29:22.379Z,35.37
2022-08-25T11:31:54.572Z,35.55
2022-08-25T11:34:23.428Z,34.52
2022-08-25T11:36:57.427Z,36.16
2022-08-25T11:39:53.089Z,37.20
2022-08-25T11:42:54.807Z,35.11
2022-08-25T11:45:45.691Z,36.34
2022-08-25T11:48:39.650Z,36.63
2022-08-25T11:51:28.038Z,35.96
2022-08-25T11:54:30.421Z,36.01
2022-08-25T11:57:05.771Z,35.57
2022-08-25T11:59:53.403Z,35.26
2022-08-25T12:02:49.280Z,36.08
2022-08-25T12:05:22.245Z,35.76
2022-08-25T12:08:11.615Z,35.72
2022-08-25T12:11:00.417Z,34.53
2022-08-25T12:13:50.780Z,35.63
2022-08-25T12:16:36.176Z,34.71
2022-08-25T12:19:24.359Z,36.06
2022-08-25T12:22:27.185Z,35.78
2022-08-25T12:25:06.423Z,36.23
2022-08-25T12:27:58.461Z,36.38
2022-08-25T12:30:31.188Z,36.34
2022-08-25T12:33:19.872Z,35.10
2022-08-25T12:35:59.238Z,35.54
2022-08-25T12:38:30.362Z,34.73
2022-08-25T12:41:05.520Z,34.69
2022-08-25T12:43:39.862Z,33.95
2022-08-25T12:46:26.477Z,33.01
2022-08-25T12:48:57.612Z,32.79
2022-08-25T12:51:28.559Z,33.36
2022-08-25T12:54:15.904Z,33.25
2022-08-25T12:56:54.203Z,33.62
2022-08-25T12:59:39.595Z,33.95
2022-08-25T13:02:37.685Z,33.69
2022-08-25T13:05:17.279Z,34.58
2022-08-25T13:08:33.725Z,34.59
2022-08-25T13:11:09.846Z,34.87
2022-08-25T13:13:39.571Z,34.69
2022-08-25T13:16:10.878Z,34.98
2022-08-25T13:18:39.983Z,35.05
2022-08-25T13:21:18.091Z,34.62
2022-08-25T13:24:01.610Z,34.71
2022-08-25T13:26:48.167Z,34.65
2022-08-25T13:29:21.765Z,34.42
2022-08-25T13:31:55.023Z,34.08
2022-08-25T13:34:34.575Z,34.26
2022-08-25T13:37:31.331Z,34.11
2022-08-25T13:40:12.035Z,33.57
2022-08-25T13:42:42.418Z,34.22
2022-08-25T13:45:18.440Z,33.66
2022-08-25T13:47:48.093Z,34.71
2022-08-25T13:50:20.041Z,34.26
2022-08-25T13:53:11.581Z,34.59
2022-08-25T13:55:51.018Z,35.35
2022-08-25T13:58:39.305Z,34.60
2022-08-25T14:01:48.196Z,34.67
2022-08-25T14:04:27.415Z,33.52
2022-08-25T14:07:23.767Z,33.93
2022-08-25T14:09:55.111Z,34.25
2022-08-25T14:12:35.897Z,32.74
2022-08-25T14:15:09.315Z,33.15
2022-08-25T14:17:40.956Z,33.47
2022-08-25T14:20:29.245Z,33.61
2022-08-25T14:23:01.849Z,33.41
2022-08-25T14:25:31.496Z,33.76
2022-08-25T14:28:06.847Z,33.01
2022-08-25T14:30:43.536Z,32.90
2022-08-25T14:33:16.988Z,33.89
2022-08-25T14:35:50.917Z,33.35
2022-08-25T14:38:21.460Z,33.38
2022-08-25T14:40:51.189Z,34.06
2022-08-25T14:43:23.822Z,33.61
2022-08-25T14:45:53.175Z,33.57
2022-08-25T14:48:26.632Z,33.28
2022-08-25T14:50:56.831Z,33.46
2022-08-25T14:53:25.661Z,33.63
2022-08-25T14:55:58.739Z,33.30
2022-08-25T14:58:33.994Z,33.56
2022-08-25T15:01:03.274Z,33.41
2022-08-25T15:03:38.026Z,33.20
2022-08-25T15:06:07.849Z,33.25
2022-08-25T15:08:58.091Z,32.69
2022-08-25T15:11:26.980Z,33.22
2022-08-25T15:13:58.468Z,33.22
2022-08-25T15:17:04.943Z,32.40
2022-08-25T15:19:35.454Z,32.78
2022-08-25T15:22:03.427Z,32.61
2022-08-25T15:24:38.000Z,32.91
2022-08-25T15:27:12.343Z,32.74
2022-08-25T15:29:43.538Z,32.20
2022-08-25T15:32:17.129Z,31.94
2022-08-25T15:34:47.045Z,31.63
2022-08-25T15:37:19.260Z,32.16
2022-08-25T15:39:50.709Z,32.00
2022-08-25T15:42:20.939Z,32.21
2022-08-25T15:44:53.144Z,31.52
2022-08-25T15:47:22.670Z,31.87
2022-08-25T15:50:00.424Z,31.33
2022-08-25T15:52:45.964Z,31.48
2022-08-25T15:55:18.514Z,31.46
2022-08-25T15:57:50.495Z,31.52
2022-08-25T16:00:19.867Z,31.44
2022-08-25T16:02:50.886Z,31.51
2022-08-25T16:05:25.210Z,31.32
2022-08-25T16:07:56.479Z,31.25
2022-08-25T16:10:26.979Z,31.63
2022-08-25T16:12:56.189Z,31.41
2022-08-25T16:15:28.967Z,31.61
2022-08-25T16:18:00.933Z,30.74
2022-08-25T16:20:30.266Z,30.86
2022-08-25T16:23:00.720Z,30.92
2022-08-25T16:25:32.173Z,31.16
2022-08-25T16:28:03.623Z,31.05
2022-08-25T16:30:31.532Z,30.61
2022-08-25T16:32:59.415Z,30.11
2022-08-25T16:35:30.745Z,30.52
2022-08-25T16:37:59.721Z,30.45
2022-08-25T16:40:32.911Z,30.28
2022-08-25T16:43:01.771Z,30.16
2022-08-25T16:45:31.843Z,30.46
2022-08-25T16:48:00.329Z,30.27
2022-08-25T16:50:30.562Z,30.13
2022-08-25T16:53:23.854Z,30.32
2022-08-25T16:56:03.339Z,30.06
2022-08-25T16:58:33.583Z,30.33
2022-08-25T17:01:09.586Z,29.84
2022-08-25T17:03:43.982Z,30.05
2022-08-25T17:06:14.275Z,29.78
2022-08-25T17:08:44.451Z,30.20
2022-08-25T17:11:19.902Z,30.05
2022-08-25T17:13:52.424Z,30.21
2022-08-25T17:16:22.315Z,29.71
2022-08-25T17:18:50.471Z,29.72
2022-08-25T17:21:24.104Z,29.23
2022-08-25T17:23:55.671Z,29.70
2022-08-25T17:26:27.575Z,28.91
2022-08-25T17:29:00.590Z,29.42
2022-08-25T17:31:31.191Z,29.39
2022-08-25T17:34:00.315Z,29.10
2022-08-25T17:36:28.846Z,29.07
2022-08-25T17:38:57.101Z,29.39
2022-08-25T17:41:26.104Z,29.36
2022-08-25T17:43:54.181Z,29.24
2022-08-25T17:46:22.122Z,29.11
2022-08-25T17:48:50.281Z,29.04
2022-08-25T17:51:18.301Z,28.79
2022-08-25T17:53:46.784Z,28.53
2022-08-25T17:56:17.073Z,28.70
2022-08-25T17:58:47.450Z,28.49
2022-08-25T18:01:24.890Z,28.74
2022-08-25T18:03:54.549Z,28.61
2022-08-25T18:06:25.242Z,28.76
2022-08-25T18:08:58.747Z,28.23
2022-08-25T18:11:28.913Z,27.83
2022-08-25T18:13:58.718Z,28.38
2022-08-25T18:16:27.171Z,28.23
2022-08-25T18:18:56.142Z,28.54
2022-08-25T18:21:30.246Z,28.52
2022-08-25T18:23:59.058Z,28.22
2022-08-25T18:26:27.942Z,28.20
2022-08-25T18:28:55.989Z,28.09
2022-08-25T18:31:23.876Z,28.36
2022-08-25T18:33:53.060Z,28.23
2022-08-25T18:36:21.317Z,27.71
2022-08-25T18:39:08.189Z,28.02
2022-08-25T18:41:40.051Z,27.67
2022-08-25T18:44:10.583Z,27.35
2022-08-25T18:46:40.059Z,26.95
2022-08-25T18:49:09.945Z,26.94
2022-08-25T18:51:38.432Z,27.00
2022-08-25T18:54:07.105Z,27.09
2022-08-25T18:56:54.083Z,26.44
2022-08-25T18:59:23.732Z,26.48
2022-08-25T19:01:53.317Z,26.55
2022-08-25T19:04:28.591Z,26.57
2022-08-25T19:07:01.170Z,26.74
2022-08-25T19:09:29.732Z,27.31
2022-08-25T19:11:59.351Z,27.09
2022-08-25T19:14:27.511Z,27.16
2022-08-25T19:16:58.145Z,26.19
2022-08-25T19:19:26.260Z,25.97
2022-08-25T19:21:54.424Z,26.26
2022-08-25T19:24:22.523Z,25.45
2022-08-25T19:26:54.440Z,25.54
2022-08-25T19:29:24.220Z,26.11
2022-08-25T19:31:52.311Z,25.82
2022-08-25T19:34:28.060Z,25.70
2022-08-25T19:37:02.103Z,25.71
2022-08-25T19:39:34.228Z,25.96
2022-08-25T19:42:03.271Z,26.00
2022-08-25T19:44:31.609Z,25.62
2022-08-25T19:46:59.880Z,25.99
2022-08-25T19:49:34.375Z,25.83
2022-08-25T19:52:10.595Z,25.89
2022-08-25T19:54:45.851Z,25.85
2022-08-25T19:57:28.486Z,26.19
2022-08-25T20:00:18.520Z,26.23
2022-08-25T20:02:47.951Z,26.21
2022-08-25T20:05:23.834Z,25.61
2022-08-25T20:07:53.423Z,25.77
2022-08-25T20:10:23.012Z,26.05
2022-08-25T20:12:52.039Z,25.96
2022-08-25T20:15:22.081Z,26.38
2022-08-25T20:17:51.423Z,26.54
2022-08-25T20:20:25.952Z,26.70
2022-08-25T20:23:20.332Z,25.57
2022-08-25T20:25:48.665Z,25.90
2022-08-25T20:28:19.047Z,25.53
2022-08-25T20:30:47.044Z,26.20
2022-08-25T20:33:22.538Z,25.52
2022-08-25T20:35:52.988Z,25.59
2022-08-25T20:38:21.438Z,25.48
2022-08-25T20:40:49.331Z,25.59
2022-08-25T20:43:18.001Z,25.12
2022-08-25T20:45:49.464Z,24.89
2022-08-25T20:48:17.581Z,25.08
2022-08-25T20:50:45.377Z,24.91
2022-08-25T20:53:25.933Z,24.83
2022-08-25T20:55:53.841Z,24.88
2022-08-25T20:58:21.572Z,25.37
2022-08-25T21:00:51.802Z,24.97
2022-08-25T21:03:20.632Z,25.10
2022-08-25T21:05:48.313Z,25.58
2022-08-25T21:08:23.821Z,24.79
2022-08-25T21:10:53.262Z,24.60
2022-08-25T21:13:21.231Z,24.38
2022-08-25T21:15:51.110Z,24.59
2022-08-25T21:18:18.861Z,24.60
2022-08-25T21:20:47.290Z,24.95
2022-08-25T21:23:15.390Z,24.95
2022-08-25T21:25:43.492Z,25.42
2022-08-25T21:28:11.591Z,24.56
2022-08-25T21:30:44.770Z,24.60
2022-08-25T21:33:15.686Z,24.62
2022-08-25T21:35:44.171Z,24.56
2022-08-25T21:38:14.744Z,24.01
2022-08-25T21:40:44.999Z,24.02
2022-08-25T21:43:13.392Z,24.52
2022-08-25T21:45:46.701Z,24.90
2022-08-25T21:48:15.761Z,24.66
2022-08-25T21:50:43.628Z,24.09
2022-08-25T21:53:11.887Z,24.66
2022-08-25T21:55:41.895Z,24.24
2022-08-25T21:58:09.951Z,24.50
2022-08-25T22:00:37.651Z,24.07
2022-08-25T22:03:05.846Z,24.43
2022-08-25T22:05:36.950Z,23.80
2022-08-25T22:08:05.751Z,24.50
2022-08-25T22:10:33.671Z,24.75
2022-08-25T22:13:01.814Z,24.29
2022-08-25T22:15:30.882Z,23.89
2022-08-25T22:17:58.904Z,24.08
2022-08-25T22:20:28.990Z,24.10
2022-08-25T22:22:57.161Z,23.92
2022-08-25T22:25:25.094Z,24.26
2022-08-25T22:27:56.571Z,24.31
2022-08-25T22:30:25.726Z,24.71
2022-08-25T22:32:58.853Z,24.94
2022-08-25T22:35:27.991Z,24.70
2022-08-25T22:37:55.773Z,24.38
2022-08-25T22:40:23.526Z,24.13
2022-08-25T22:42:52.323Z,24.36
2022-08-25T22:45:20.492Z,23.65
2022-08-25T22:47:49.311Z,24.36
2022-08-25T22:50:18.102Z,24.33
2022-08-25T22:52:47.326Z,23.98
2022-08-25T22:55:16.398Z,24.36
2022-08-25T22:57:45.099Z,23.87
2022-08-25T23:00:14.769Z,23.99
2022-08-25T23:02:43.122Z,23.34
2022-08-25T23:05:13.071Z,24.26
2022-08-25T23:07:41.392Z,24.19
2022-08-25T23:10:11.907Z,24.10
2022-08-25T23:12:40.562Z,24.14
2022-08-25T23:15:13.069Z,23.93
2022-08-25T23:17:42.359Z,23.73
2022-08-25T23:20:29.498Z,23.39
2022-08-25T23:22:59.032Z,23.24
2022-08-25T23:25:27.057Z,22.83
2022-08-25T23:27:54.940Z,22.47
2022-08-25T23:30:27.121Z,22.18
2022-08-25T23:32:55.120Z,23.23
2022-08-25T23:35:23.162Z,23.62
2022-08-25T23:37:51.572Z,23.63
2022-08-25T23:40:19.787Z,23.56
2022-08-25T23:42:48.145Z,23.40
2022-08-25T23:45:16.343Z,22.80
2022-08-25T23:47:44.172Z,22.98
2022-08-25T23:50:12.870Z,22.77
2022-08-25T23:52:40.720Z,23.16
2022-08-25T23:55:08.790Z,22.97
2022-08-25T23:57:36.931Z,22.94
